createdAt,value
2023-05-20T00:01:22.305Z,69.65
2023-05-20T00:03:50.400Z,69.69
2023-05-20T00:06:18.518Z,69.73
2023-05-20T00:08:46.455Z,69.83
2023-05-20T00:11:14.468Z,70.00
2023-05-20T00:13:42.366Z,70.08
2023-05-20T00:16:10.408Z,70.26
2023-05-20T00:18:38.477Z,70.40
2023-05-20T00:21:06.458Z,70.62
2023-05-20T00:23:34.364Z,70.77
2023-05-20T00:26:02.232Z,70.86
2023-05-20T00:28:30.207Z,71.02
2023-05-20T00:30:58.126Z,71.31
2023-05-20T00:33:26.010Z,71.61
2023-05-20T00:35:53.876Z,71.83
2023-05-20T00:38:22.019Z,72.06
2023-05-20T00:40:49.926Z,72.31
2023-05-20T00:43:17.841Z,72.42
2023-05-20T00:45:45.734Z,72.61
2023-05-20T00:48:14.177Z,72.72
2023-05-20T00:50:42.087Z,72.95
2023-05-20T00:53:11.278Z,73.13
2023-05-20T00:55:39.555Z,73.15
2023-05-20T00:58:07.670Z,73.21
2023-05-20T01:00:35.717Z,73.33
2023-05-20T01:03:03.915Z,73.33
2023-05-20T01:05:32.133Z,73.42
2023-05-20T01:08:00.171Z,73.45
2023-05-20T01:10:31.581Z,73.56
2023-05-20T01:13:03.688Z,73.67
2023-05-20T01:15:33.315Z,73.73
2023-05-20T01:18:03.749Z,73.88
2023-05-20T01:20:33.762Z,73.93
2023-05-20T01:23:01.728Z,74.00
2023-05-20T01:25:29.826Z,73.90
2023-05-20T01:27:59.063Z,73.87
2023-05-20T01:30:33.573Z,73.90
2023-05-20T01:33:06.315Z,73.98
2023-05-20T01:35:36.296Z,74.04
2023-05-20T01:38:07.511Z,74.05
2023-05-20T01:40:36.058Z,74.20
2023-05-20T01:43:04.805Z,74.24
2023-05-20T01:45:33.524Z,74.43
2023-05-20T01:48:03.049Z,74.54
2023-05-20T01:50:31.017Z,74.62
2023-05-20T01:52:58.934Z,74.67
2023-05-20T01:55:26.933Z,74.67
2023-05-20T01:57:54.957Z,74.55
2023-05-20T02:00:23.118Z,74.48
2023-05-20T02:02:51.127Z,74.47
2023-05-20T02:05:19.421Z,74.67
2023-05-20T02:07:47.463Z,74.92
2023-05-20T02:10:15.408Z,75.16
2023-05-20T02:12:43.938Z,75.29
2023-05-20T02:15:12.126Z,75.40
2023-05-20T02:17:41.007Z,75.58
2023-05-20T02:20:09.411Z,75.61
2023-05-20T02:22:37.773Z,75.70
2023-05-20T02:25:05.939Z,76.15
2023-05-20T02:27:33.907Z,76.21
2023-05-20T02:30:02.144Z,76.04
2023-05-20T02:32:30.177Z,76.04
2023-05-20T02:34:58.174Z,76.09
2023-05-20T02:37:26.098Z,76.01
2023-05-20T02:39:53.980Z,75.97
2023-05-20T02:42:21.921Z,75.98
2023-05-20T02:44:49.866Z,76.00
2023-05-20T02:47:17.795Z,75.99
2023-05-20T02:49:45.724Z,76.12
2023-05-20T02:52:13.626Z,76.26
2023-05-20T02:54:41.974Z,76.29
2023-05-20T02:57:09.899Z,76.31
2023-05-20T02:59:37.795Z,76.46
2023-05-20T03:02:06.257Z,76.52
2023-05-20T03:04:34.249Z,76.64
2023-05-20T03:07:02.168Z,76.72
2023-05-20T03:09:30.382Z,76.82
2023-05-20T03:11:58.238Z,76.81
2023-05-20T03:14:26.209Z,76.85
2023-05-20T03:16:56.756Z,76.98
2023-05-20T03:19:24.992Z,77.18
2023-05-20T03:21:53.068Z,77.44
2023-05-20T03:24:21.068Z,77.64
2023-05-20T03:26:49.277Z,77.77
2023-05-20T03:29:19.227Z,77.92
2023-05-20T03:31:47.790Z,78.03
2023-05-20T03:34:15.890Z,78.26
2023-05-20T03:36:43.827Z,78.40
2023-05-20T03:39:11.806Z,78.54
2023-05-20T03:41:39.699Z,78.67
2023-05-20T03:44:07.693Z,78.89
2023-05-20T03:46:35.688Z,79.06
2023-05-20T03:49:03.797Z,79.14
2023-05-20T03:51:31.946Z,79.37
2023-05-20T03:53:59.846Z,79.57
2023-05-20T03:56:27.825Z,79.79
2023-05-20T03:58:55.684Z,80.01
2023-05-20T04:01:27.010Z,80.21
2023-05-20T04:03:55.069Z,80.26
2023-05-20T04:06:23.901Z,80.53
2023-05-20T04:08:52.018Z,80.68
2023-05-20T04:11:19.951Z,80.99
2023-05-20T04:13:47.849Z,81.02
2023-05-20T04:16:16.315Z,81.42
2023-05-20T04:18:47.398Z,81.73
2023-05-20T04:21:15.482Z,81.74
2023-05-20T04:23:43.437Z,81.90
2023-05-20T04:26:11.661Z,81.98
2023-05-20T04:28:40.360Z,82.17
2023-05-20T04:31:08.327Z,82.28
2023-05-20T04:33:39.323Z,82.45
2023-05-20T04:36:09.221Z,82.59
2023-05-20T04:38:37.381Z,82.74
2023-05-20T04:41:05.758Z,83.08
2023-05-20T04:43:35.077Z,83.21
2023-05-20T04:46:02.979Z,83.40
2023-05-20T04:48:30.844Z,83.42
2023-05-20T04:50:58.746Z,83.34
2023-05-20T04:53:26.975Z,83.40
2023-05-20T04:55:58.428Z,83.35
2023-05-20T04:58:26.373Z,83.52
2023-05-20T05:00:54.759Z,83.43
2023-05-20T05:03:22.763Z,83.57
2023-05-20T05:05:50.691Z,83.57
2023-05-20T05:08:18.741Z,83.56
2023-05-20T05:10:47.202Z,83.57
2023-05-20T05:13:15.160Z,83.71
2023-05-20T05:15:43.233Z,83.58
2023-05-20T05:18:11.332Z,83.61
2023-05-20T05:20:39.314Z,83.69
2023-05-20T05:23:07.301Z,83.97
2023-05-20T05:25:35.450Z,83.77
2023-05-20T05:28:03.619Z,83.56
2023-05-20T05:30:31.514Z,83.67
2023-05-20T05:32:59.548Z,83.49
2023-05-20T05:35:27.613Z,83.35
2023-05-20T05:37:55.571Z,83.46
2023-05-20T05:40:23.668Z,83.43
2023-05-20T05:42:51.558Z,83.39
2023-05-20T05:45:19.516Z,83.30
2023-05-20T05:47:47.509Z,83.37
2023-05-20T05:50:15.569Z,83.31
2023-05-20T05:52:43.435Z,83.48
2023-05-20T05:55:12.229Z,83.29
2023-05-20T05:57:40.181Z,83.33
2023-05-20T06:00:09.627Z,83.30
2023-05-20T06:02:37.808Z,83.56
2023-05-20T06:05:06.988Z,83.58
2023-05-20T06:07:34.902Z,83.57
2023-05-20T06:10:03.251Z,83.53
2023-05-20T06:12:31.238Z,83.42
2023-05-20T06:14:59.155Z,83.34
2023-05-20T06:17:27.256Z,83.31
2023-05-20T06:19:55.185Z,83.17
2023-05-20T06:22:23.092Z,83.06
2023-05-20T06:24:50.959Z,83.09
2023-05-20T06:27:18.845Z,83.07
2023-05-20T06:29:46.784Z,83.12
2023-05-20T06:32:14.729Z,83.29
2023-05-20T06:34:42.711Z,83.67
2023-05-20T06:37:10.620Z,83.31
2023-05-20T06:39:38.709Z,83.26
2023-05-20T06:42:06.893Z,83.04
2023-05-20T06:44:34.833Z,83.12
2023-05-20T06:47:02.845Z,82.42
2023-05-20T06:49:30.827Z,81.98
2023-05-20T06:51:58.687Z,81.60
2023-05-20T06:54:26.831Z,81.44
2023-05-20T06:56:54.696Z,81.32
2023-05-20T06:59:22.626Z,81.05
2023-05-20T07:01:50.565Z,80.86
2023-05-20T07:04:18.469Z,80.70
2023-05-20T07:06:46.544Z,80.34
2023-05-20T07:09:14.501Z,80.17
2023-05-20T07:11:42.507Z,79.94
2023-05-20T07:14:10.515Z,79.80
2023-05-20T07:16:38.660Z,79.47
2023-05-20T07:19:06.789Z,79.15
2023-05-20T07:21:34.734Z,78.98
2023-05-20T07:24:02.740Z,78.62
2023-05-20T07:26:34.832Z,78.41
2023-05-20T07:29:03.287Z,78.12
2023-05-20T07:31:32.286Z,77.95
2023-05-20T07:34:00.279Z,77.92
2023-05-20T07:36:29.384Z,77.87
2023-05-20T07:39:03.623Z,77.67
2023-05-20T07:41:33.510Z,77.78
2023-05-20T07:44:04.355Z,77.53
2023-05-20T07:46:33.155Z,77.56
2023-05-20T07:49:01.160Z,77.64
2023-05-20T07:51:29.033Z,77.53
2023-05-20T07:53:57.264Z,77.46
2023-05-20T07:56:25.453Z,77.27
2023-05-20T07:58:59.729Z,77.10
2023-05-20T08:01:28.726Z,76.99
2023-05-20T08:03:57.003Z,76.71
2023-05-20T08:06:29.809Z,76.55
2023-05-20T08:08:58.119Z,76.30
2023-05-20T08:11:26.137Z,76.07
2023-05-20T08:13:54.237Z,75.97
2023-05-20T08:16:23.394Z,75.84
2023-05-20T08:18:51.527Z,75.58
2023-05-20T08:21:19.570Z,75.38
2023-05-20T08:23:47.469Z,75.12
2023-05-20T08:26:15.580Z,74.77
2023-05-20T08:28:43.542Z,74.47
2023-05-20T08:31:12.182Z,74.21
2023-05-20T08:33:40.166Z,73.87
2023-05-20T08:36:09.678Z,73.88
2023-05-20T08:38:37.988Z,73.98
2023-05-20T08:41:06.072Z,73.69
2023-05-20T08:43:34.183Z,73.25
2023-05-20T08:46:04.491Z,72.62
2023-05-20T08:48:33.530Z,72.44
2023-05-20T08:51:04.375Z,72.16
2023-05-20T08:53:32.379Z,71.75
2023-05-20T08:56:04.613Z,71.52
2023-05-20T08:58:33.931Z,70.58
2023-05-20T09:01:02.376Z,70.56
2023-05-20T09:03:30.358Z,70.08
2023-05-20T09:06:10.934Z,69.88
2023-05-20T09:08:39.240Z,69.74
2023-05-20T09:11:08.122Z,69.85
2023-05-20T09:13:36.073Z,69.41
2023-05-20T09:16:04.593Z,69.36
2023-05-20T09:18:32.809Z,69.17
2023-05-20T09:21:07.702Z,68.79
2023-05-20T09:23:38.603Z,68.17
2023-05-20T09:26:06.847Z,67.87
2023-05-20T09:28:35.129Z,67.86
2023-05-20T09:31:03.420Z,67.75
2023-05-20T09:33:33.241Z,67.70
2023-05-20T09:36:06.159Z,67.38
2023-05-20T09:38:39.249Z,66.48
2023-05-20T09:41:13.735Z,66.92
2023-05-20T09:43:42.192Z,66.53
2023-05-20T09:46:10.564Z,66.66
2023-05-20T09:48:39.404Z,66.56
2023-05-20T09:51:09.081Z,66.67
2023-05-20T09:53:37.435Z,66.49
2023-05-20T09:56:05.856Z,66.64
2023-05-20T09:58:35.483Z,66.58
2023-05-20T10:01:03.656Z,66.40
2023-05-20T10:03:32.006Z,66.40
2023-05-20T10:06:03.107Z,66.48
2023-05-20T10:08:52.118Z,66.09
2023-05-20T10:12:08.321Z,65.84
2023-05-20T10:15:05.786Z,65.92
2023-05-20T10:18:02.897Z,65.97
2023-05-20T10:20:31.035Z,65.61
2023-05-20T10:22:59.696Z,65.63
2023-05-20T10:25:30.917Z,65.00
2023-05-20T10:28:10.367Z,64.52
2023-05-20T10:30:39.883Z,64.26
2023-05-20T10:33:09.870Z,64.40
2023-05-20T10:35:48.477Z,64.22
2023-05-20T10:38:16.423Z,64.35
2023-05-20T10:40:44.332Z,64.14
2023-05-20T10:43:18.172Z,63.73
2023-05-20T10:45:51.432Z,63.89
2023-05-20T10:48:37.556Z,63.96
2023-05-20T10:51:06.184Z,63.73
2023-05-20T10:53:42.499Z,63.84
2023-05-20T10:56:21.065Z,63.42
2023-05-20T10:58:49.357Z,63.16
2023-05-20T11:01:18.261Z,63.05
2023-05-20T11:03:48.998Z,62.71
2023-05-20T11:06:19.418Z,62.40
2023-05-20T11:08:47.829Z,62.27
2023-05-20T11:11:16.720Z,62.24
2023-05-20T11:13:44.755Z,61.96
2023-05-20T11:16:12.927Z,61.70
2023-05-20T11:18:41.029Z,61.48
2023-05-20T11:21:09.362Z,61.33
2023-05-20T11:23:40.595Z,61.36
2023-05-20T11:26:09.345Z,61.13
2023-05-20T11:28:37.493Z,60.99
2023-05-20T11:31:05.978Z,61.09
2023-05-20T11:33:33.914Z,61.33
2023-05-20T11:36:06.518Z,61.07
2023-05-20T11:38:36.687Z,61.05
2023-05-20T11:41:04.695Z,61.12
2023-05-20T11:43:35.171Z,60.78
2023-05-20T11:46:03.310Z,60.34
2023-05-20T11:48:31.334Z,60.10
2023-05-20T11:51:01.315Z,60.08
2023-05-20T11:53:30.190Z,59.93
2023-05-20T11:56:00.189Z,60.00
2023-05-20T11:58:33.048Z,59.65
2023-05-20T12:01:09.526Z,59.44
2023-05-20T12:03:48.951Z,59.66
2023-05-20T12:06:18.804Z,59.46
2023-05-20T12:08:46.940Z,59.21
2023-05-20T12:11:15.073Z,59.11
2023-05-20T12:13:43.134Z,59.11
2023-05-20T12:16:11.177Z,59.00
2023-05-20T12:18:39.236Z,58.70
2023-05-20T12:21:07.161Z,58.76
2023-05-20T12:23:35.487Z,58.68
2023-05-20T12:26:03.597Z,58.77
2023-05-20T12:28:31.545Z,58.91
2023-05-20T12:30:59.510Z,59.26
2023-05-20T12:33:28.920Z,59.03
2023-05-20T12:35:57.012Z,58.81
2023-05-20T12:38:24.905Z,58.73
2023-05-20T12:40:52.835Z,58.80
2023-05-20T12:43:20.807Z,58.50
2023-05-20T12:45:48.802Z,58.39
2023-05-20T12:48:16.953Z,58.36
2023-05-20T12:50:45.195Z,57.91
2023-05-20T12:53:13.151Z,57.78
2023-05-20T12:55:41.692Z,57.26
2023-05-20T12:58:10.270Z,57.68
2023-05-20T13:00:38.183Z,57.96
2023-05-20T13:03:06.445Z,57.80
2023-05-20T13:05:34.517Z,57.66
2023-05-20T13:08:02.595Z,57.55
2023-05-20T13:10:30.553Z,57.67
2023-05-20T13:12:58.710Z,57.51
2023-05-20T13:15:27.110Z,57.53
2023-05-20T13:17:55.703Z,56.78
2023-05-20T13:20:24.335Z,57.47
2023-05-20T13:22:52.453Z,57.54
2023-05-20T13:25:20.519Z,57.53
2023-05-20T13:27:48.501Z,57.33
2023-05-20T13:30:16.518Z,57.34
2023-05-20T13:32:44.447Z,57.26
2023-05-20T13:35:14.340Z,57.63
2023-05-20T13:37:42.248Z,57.69
2023-05-20T13:40:10.799Z,57.42
2023-05-20T13:42:38.895Z,57.34
2023-05-20T13:45:07.690Z,57.31
2023-05-20T13:47:35.843Z,56.96
2023-05-20T13:50:03.928Z,57.01
2023-05-20T13:52:32.017Z,57.02
2023-05-20T13:54:59.911Z,57.09
2023-05-20T13:57:27.952Z,57.20
2023-05-20T13:59:56.138Z,57.06
2023-05-20T14:02:24.129Z,57.03
2023-05-20T14:04:52.187Z,56.90
2023-05-20T14:07:20.179Z,56.77
2023-05-20T14:09:48.163Z,56.42
2023-05-20T14:12:16.108Z,56.48
2023-05-20T14:14:44.150Z,56.42
2023-05-20T14:17:12.227Z,55.88
2023-05-20T14:19:40.212Z,55.97
2023-05-20T14:22:08.385Z,55.56
2023-05-20T14:24:36.351Z,54.10
2023-05-20T14:27:04.257Z,54.55
2023-05-20T14:29:32.258Z,54.85
2023-05-20T14:32:00.342Z,54.80
2023-05-20T14:34:28.634Z,54.53
2023-05-20T14:36:56.693Z,54.21
2023-05-20T14:39:24.609Z,53.62
2023-05-20T14:41:52.511Z,53.47
2023-05-20T14:44:20.413Z,53.45
2023-05-20T14:46:48.872Z,53.42
2023-05-20T14:49:16.883Z,53.13
2023-05-20T14:51:44.994Z,52.56
2023-05-20T14:54:13.164Z,52.49
2023-05-20T14:56:42.174Z,52.66
2023-05-20T14:59:11.007Z,52.47
2023-05-20T15:01:39.004Z,52.06
2023-05-20T15:04:07.080Z,51.77
2023-05-20T15:06:37.188Z,52.10
2023-05-20T15:09:07.608Z,52.50
2023-05-20T15:11:35.529Z,53.15
2023-05-20T15:14:03.619Z,53.59
2023-05-20T15:16:31.605Z,54.00
2023-05-20T15:18:59.632Z,54.63
2023-05-20T15:21:27.660Z,54.75
2023-05-20T15:23:55.615Z,54.50
2023-05-20T15:26:23.621Z,55.14
2023-05-20T15:28:51.713Z,55.19
2023-05-20T15:31:19.654Z,55.41
2023-05-20T15:33:47.694Z,55.59
2023-05-20T15:36:15.830Z,55.59
2023-05-20T15:38:45.395Z,55.57
2023-05-20T15:41:17.426Z,55.64
2023-05-20T15:43:45.528Z,55.80
2023-05-20T15:46:13.460Z,56.08
2023-05-20T15:48:41.496Z,56.53
2023-05-20T15:51:09.380Z,56.44
2023-05-20T15:53:39.327Z,56.50
2023-05-20T15:56:10.485Z,56.64
2023-05-20T15:58:38.435Z,56.64
2023-05-20T16:01:06.479Z,56.50
2023-05-20T16:03:34.791Z,56.48
2023-05-20T16:06:02.859Z,56.50
2023-05-20T16:08:30.830Z,56.32
2023-05-20T16:10:58.723Z,56.48
2023-05-20T16:13:26.829Z,56.58
2023-05-20T16:15:58.739Z,56.53
2023-05-20T16:18:29.817Z,56.64
2023-05-20T16:20:58.658Z,56.94
2023-05-20T16:23:26.775Z,56.86
2023-05-20T16:25:54.759Z,56.50
2023-05-20T16:28:23.530Z,56.10
2023-05-20T16:30:51.467Z,56.17
2023-05-20T16:33:19.403Z,56.04
2023-05-20T16:35:47.293Z,55.99
2023-05-20T16:38:15.163Z,56.12
2023-05-20T16:40:43.094Z,56.39
2023-05-20T16:43:11.026Z,56.48
2023-05-20T16:45:39.004Z,56.74
2023-05-20T16:48:07.254Z,57.02
2023-05-20T16:50:35.298Z,57.20
2023-05-20T16:53:03.395Z,57.29
2023-05-20T16:55:31.448Z,57.37
2023-05-20T16:57:59.558Z,57.60
2023-05-20T17:00:28.249Z,57.68
2023-05-20T17:02:56.322Z,57.92
2023-05-20T17:05:24.556Z,58.40
2023-05-20T17:07:52.997Z,58.50
2023-05-20T17:10:21.017Z,58.91
2023-05-20T17:12:49.066Z,59.09
2023-05-20T17:15:17.339Z,59.42
2023-05-20T17:17:45.320Z,59.77
2023-05-20T17:20:13.713Z,60.07
2023-05-20T17:22:41.785Z,60.17
2023-05-20T17:25:10.216Z,60.39
2023-05-20T17:27:38.126Z,60.77
2023-05-20T17:30:06.918Z,60.85
2023-05-20T17:32:34.844Z,61.04
2023-05-20T17:35:03.430Z,61.25
2023-05-20T17:37:31.346Z,61.37
2023-05-20T17:39:59.357Z,61.54
2023-05-20T17:42:27.365Z,61.95
2023-05-20T17:44:55.414Z,62.12
2023-05-20T17:47:23.508Z,62.58
2023-05-20T17:49:51.930Z,62.26
2023-05-20T17:52:19.903Z,62.65
2023-05-20T17:54:47.882Z,62.65
2023-05-20T17:57:15.823Z,62.95
2023-05-20T17:59:46.685Z,63.16
2023-05-20T18:02:14.638Z,63.49
2023-05-20T18:04:42.740Z,63.60
2023-05-20T18:07:10.653Z,63.76
2023-05-20T18:09:38.559Z,63.88
2023-05-20T18:12:07.680Z,63.91
2023-05-20T18:14:35.594Z,64.12
2023-05-20T18:17:03.531Z,64.28
2023-05-20T18:19:31.621Z,64.44
2023-05-20T18:21:59.919Z,64.80
2023-05-20T18:24:27.961Z,64.86
2023-05-20T18:26:55.821Z,65.17
2023-05-20T18:29:24.771Z,65.54
2023-05-20T18:31:52.721Z,65.73
2023-05-20T18:34:20.676Z,65.80
2023-05-20T18:36:49.051Z,66.01
2023-05-20T18:39:21.645Z,66.11
2023-05-20T18:41:49.945Z,66.30
2023-05-20T18:44:19.319Z,66.57
2023-05-20T18:46:47.748Z,66.86
2023-05-20T18:49:15.758Z,66.87
2023-05-20T18:51:43.740Z,67.55
2023-05-20T18:54:11.722Z,67.34
2023-05-20T18:56:39.841Z,67.72
2023-05-20T18:59:07.810Z,67.86
2023-05-20T19:01:37.778Z,68.12
2023-05-20T19:04:05.901Z,68.29
2023-05-20T19:06:36.169Z,68.31
2023-05-20T19:09:05.149Z,68.36
2023-05-20T19:11:33.386Z,68.39
2023-05-20T19:14:01.373Z,68.42
2023-05-20T19:16:29.402Z,68.50
2023-05-20T19:18:57.437Z,68.62
2023-05-20T19:21:25.334Z,68.79
2023-05-20T19:23:53.703Z,69.73
2023-05-20T19:26:21.636Z,70.05
2023-05-20T19:28:49.608Z,70.29
2023-05-20T19:31:22.149Z,70.42
2023-05-20T19:33:50.450Z,70.54
2023-05-20T19:36:18.843Z,70.72
2023-05-20T19:38:46.767Z,70.90
2023-05-20T19:41:15.434Z,71.04
2023-05-20T19:43:43.336Z,71.15
2023-05-20T19:46:11.395Z,71.40
2023-05-20T19:48:39.414Z,71.49
2023-05-20T19:51:07.548Z,71.66
2023-05-20T19:53:35.480Z,71.81
2023-05-20T19:56:03.590Z,71.91
2023-05-20T19:58:31.561Z,71.97
2023-05-20T20:00:59.538Z,72.09
2023-05-20T20:03:27.402Z,72.24
2023-05-20T20:05:55.465Z,72.42
2023-05-20T20:08:23.368Z,72.47
2023-05-20T20:10:51.339Z,72.49
2023-05-20T20:13:19.277Z,72.55
2023-05-20T20:15:47.570Z,72.46
2023-05-20T20:18:15.665Z,72.45
2023-05-20T20:20:44.319Z,72.45
2023-05-20T20:23:12.327Z,72.44
2023-05-20T20:25:40.602Z,72.40
2023-05-20T20:28:09.497Z,72.46
2023-05-20T20:30:37.890Z,72.47
2023-05-20T20:33:10.822Z,72.50
2023-05-20T20:35:39.192Z,72.51
2023-05-20T20:38:11.204Z,72.58
2023-05-20T20:40:40.921Z,72.53
2023-05-20T20:43:10.031Z,72.53
2023-05-20T20:45:41.185Z,72.53
2023-05-20T20:48:09.196Z,72.61
2023-05-20T20:50:37.875Z,72.83
2023-05-20T20:53:05.857Z,72.91
2023-05-20T20:55:34.023Z,73.22
2023-05-20T20:58:03.876Z,73.50
2023-05-20T21:00:32.088Z,73.77
2023-05-20T21:03:00.030Z,73.94
2023-05-20T21:05:30.336Z,74.17
2023-05-20T21:08:04.373Z,74.21
2023-05-20T21:10:32.700Z,74.40
2023-05-20T21:13:00.934Z,74.46
2023-05-20T21:15:28.986Z,74.68
2023-05-20T21:17:57.004Z,74.91
2023-05-20T21:20:25.207Z,75.21
2023-05-20T21:22:53.158Z,75.50
2023-05-20T21:25:21.094Z,75.82
2023-05-20T21:27:49.278Z,76.12
2023-05-20T21:30:18.576Z,76.24
2023-05-20T21:32:46.960Z,76.36
2023-05-20T21:35:15.081Z,76.41
2023-05-20T21:37:42.995Z,76.46
2023-05-20T21:40:11.320Z,76.61
2023-05-20T21:42:39.495Z,76.75
2023-05-20T21:45:08.221Z,76.79
2023-05-20T21:47:36.198Z,77.12
2023-05-20T21:50:05.002Z,77.35
2023-05-20T21:52:33.038Z,77.76
2023-05-20T21:55:01.190Z,77.91
2023-05-20T21:57:29.112Z,78.28
2023-05-20T21:59:57.063Z,78.61
2023-05-20T22:02:25.100Z,79.04
2023-05-20T22:04:53.077Z,79.84
2023-05-20T22:07:20.950Z,80.44
2023-05-20T22:09:48.828Z,80.82
2023-05-20T22:12:17.006Z,81.30
2023-05-20T22:14:44.979Z,81.83
2023-05-20T22:17:13.167Z,82.59
2023-05-20T22:19:41.593Z,82.96
2023-05-20T22:22:09.589Z,83.67
2023-05-20T22:24:37.663Z,84.03
2023-05-20T22:27:05.839Z,84.40
2023-05-20T22:29:34.012Z,84.70
2023-05-20T22:32:02.229Z,85.19
2023-05-20T22:34:30.339Z,85.48
2023-05-20T22:36:59.385Z,85.58
2023-05-20T22:39:27.388Z,85.93
2023-05-20T22:41:55.283Z,86.11
2023-05-20T22:44:23.163Z,86.40
2023-05-20T22:46:51.010Z,86.65
2023-05-20T22:49:20.059Z,86.81
2023-05-20T22:51:48.022Z,87.01
2023-05-20T22:54:15.952Z,87.23
2023-05-20T22:56:44.278Z,87.34
2023-05-20T22:59:12.311Z,87.57
2023-05-20T23:01:40.364Z,87.99
2023-05-20T23:04:08.278Z,88.26
2023-05-20T23:06:39.417Z,88.51
2023-05-20T23:09:07.588Z,88.88
2023-05-20T23:11:35.573Z,89.27
2023-05-20T23:14:03.509Z,89.59
2023-05-20T23:16:31.509Z,89.64
2023-05-20T23:19:00.533Z,90.02
2023-05-20T23:21:28.551Z,90.25
2023-05-20T23:23:56.487Z,90.45
2023-05-20T23:26:25.435Z,90.64
2023-05-20T23:28:53.652Z,90.88
2023-05-20T23:31:23.842Z,90.99
2023-05-20T23:33:52.155Z,91.11
2023-05-20T23:36:21.364Z,91.35
2023-05-20T23:38:49.242Z,91.24
2023-05-20T23:41:17.104Z,91.30
2023-05-20T23:43:45.057Z,91.06
2023-05-20T23:46:12.962Z,90.88
2023-05-20T23:48:40.891Z,90.67
2023-05-20T23:51:11.294Z,90.50
2023-05-20T23:53:39.188Z,90.36
2023-05-20T23:56:09.100Z,90.20
2023-05-20T23:58:37.326Z,90.06
